createdAt,value
2018-09-23T00:02:59.670Z,9.20
2018-09-23T00:06:04.072Z,9.20
2018-09-23T00:09:09.052Z,9.20
2018-09-23T00:12:13.590Z,9.30
2018-09-23T00:15:17.862Z,9.30
2018-09-23T00:18:22.180Z,9.30
2018-09-23T00:21:26.505Z,9.30
2018-09-23T00:24:30.805Z,9.40
2018-09-23T00:27:35.134Z,9.50
2018-09-23T00:30:39.456Z,9.50
2018-09-23T00:33:43.920Z,9.50
2018-09-23T00:36:48.328Z,9.50
2018-09-23T00:39:52.766Z,9.60
2018-09-23T00:42:57.100Z,9.60
2018-09-23T00:46:01.356Z,9.60
2018-09-23T00:49:05.630Z,9.60
2018-09-23T00:52:09.901Z,9.70
2018-09-23T00:55:14.233Z,9.70
2018-09-23T00:58:18.546Z,9.70
2018-09-23T01:01:22.938Z,9.70
2018-09-23T01:04:27.186Z,9.70
2018-09-23T01:07:31.542Z,9.70
2018-09-23T01:10:36.843Z,9.60
2018-09-23T01:13:41.352Z,9.60
2018-09-23T01:16:45.618Z,9.60
2018-09-23T01:19:49.891Z,9.60
2018-09-23T01:22:54.295Z,9.50
2018-09-23T01:25:58.597Z,9.50
2018-09-23T01:29:02.884Z,9.50
2018-09-23T01:32:07.258Z,9.50
2018-09-23T01:35:11.505Z,9.50
2018-09-23T01:38:15.790Z,9.40
2018-09-23T01:41:20.185Z,9.40
2018-09-23T01:44:24.512Z,9.30
2018-09-23T01:47:28.832Z,9.30
2018-09-23T01:50:33.253Z,9.30
2018-09-23T01:53:37.818Z,9.30
2018-09-23T01:56:42.345Z,9.30
2018-09-23T01:59:46.585Z,9.40
2018-09-23T02:02:51.051Z,9.40
2018-09-23T02:05:55.394Z,9.40
2018-09-23T02:08:59.673Z,9.30
2018-09-23T02:12:04.007Z,9.30
2018-09-23T02:15:08.269Z,9.30
2018-09-23T02:18:12.553Z,9.20
2018-09-23T02:21:16.970Z,9.20
2018-09-23T02:24:21.200Z,9.10
2018-09-23T02:27:25.504Z,9.10
2018-09-23T02:30:29.793Z,9.00
2018-09-23T02:33:34.025Z,9.00
2018-09-23T02:36:38.297Z,8.90
2018-09-23T02:39:42.606Z,9.00
2018-09-23T02:42:46.919Z,9.10
2018-09-23T02:45:51.289Z,9.10
2018-09-23T02:48:55.564Z,9.10
2018-09-23T02:51:59.897Z,9.10
2018-09-23T02:55:04.158Z,9.00
2018-09-23T02:58:08.424Z,8.90
2018-09-23T03:01:12.684Z,8.80
2018-09-23T03:04:16.967Z,8.70
2018-09-23T03:07:21.192Z,8.70
2018-09-23T03:10:25.768Z,8.60
2018-09-23T03:13:30.005Z,8.60
2018-09-23T03:16:34.261Z,8.70
2018-09-23T03:19:38.561Z,8.70
2018-09-23T03:22:42.909Z,8.70
2018-09-23T03:25:47.236Z,8.70
2018-09-23T03:28:51.495Z,8.70
2018-09-23T03:31:55.897Z,8.70
2018-09-23T03:35:00.186Z,8.70
2018-09-23T03:38:04.673Z,8.80
2018-09-23T03:41:09.037Z,8.90
2018-09-23T03:44:13.357Z,8.90
2018-09-23T03:47:17.663Z,9.00
2018-09-23T03:50:21.991Z,9.00
2018-09-23T03:53:26.328Z,8.90
2018-09-23T03:56:30.645Z,8.90
2018-09-23T03:59:34.969Z,8.80
2018-09-23T04:02:39.287Z,8.70
2018-09-23T04:05:43.604Z,8.60
2018-09-23T04:08:47.866Z,8.60
2018-09-23T04:11:52.161Z,8.50
2018-09-23T04:14:56.473Z,8.50
2018-09-23T04:18:00.796Z,8.40
2018-09-23T04:21:05.149Z,8.40
2018-09-23T04:24:09.384Z,8.40
2018-09-23T04:27:13.630Z,8.40
2018-09-23T04:30:19.159Z,8.40
2018-09-23T04:33:23.425Z,8.40
2018-09-23T04:36:27.628Z,8.40
2018-09-23T04:39:31.967Z,8.40
2018-09-23T04:42:36.319Z,8.40
2018-09-23T04:45:40.596Z,7.90
2018-09-23T04:48:44.921Z,8.30
2018-09-23T04:51:49.769Z,8.30
2018-09-23T04:54:54.092Z,8.20
2018-09-23T04:57:58.403Z,8.20
2018-09-23T05:01:02.625Z,8.20
2018-09-23T05:04:06.947Z,8.20
2018-09-23T05:07:11.278Z,8.00
2018-09-23T05:10:15.852Z,8.10
2018-09-23T05:13:20.127Z,8.10
2018-09-23T05:16:24.459Z,8.10
2018-09-23T05:19:28.752Z,8.10
2018-09-23T05:22:33.085Z,8.20
2018-09-23T05:25:37.426Z,8.30
2018-09-23T05:28:41.729Z,8.40
2018-09-23T05:31:46.282Z,8.50
2018-09-23T05:34:50.575Z,8.60
2018-09-23T05:37:54.891Z,8.70
2018-09-23T05:40:59.268Z,8.90
2018-09-23T05:44:03.583Z,8.90
2018-09-23T05:47:07.882Z,8.90
2018-09-23T05:50:12.179Z,8.90
2018-09-23T05:53:16.570Z,8.90
2018-09-23T05:56:20.823Z,8.90
2018-09-23T05:59:25.147Z,8.80
2018-09-23T06:02:29.749Z,8.70
2018-09-23T06:05:34.260Z,8.80
2018-09-23T06:08:38.654Z,8.80
2018-09-23T06:11:43.117Z,8.90
2018-09-23T06:14:47.589Z,9.00
2018-09-23T06:17:51.898Z,9.10
2018-09-23T06:20:56.222Z,9.20
2018-09-23T06:24:00.744Z,9.30
2018-09-23T06:27:05.084Z,9.40
2018-09-23T06:30:09.632Z,9.50
2018-09-23T06:33:13.988Z,9.60
2018-09-23T06:36:18.273Z,9.70
2018-09-23T06:39:22.645Z,9.80
2018-09-23T06:42:27.042Z,9.90
2018-09-23T06:45:31.341Z,10.00
2018-09-23T06:48:35.643Z,10.20
2018-09-23T06:51:40.110Z,10.30
2018-09-23T06:54:44.489Z,10.50
2018-09-23T06:57:48.794Z,10.60
2018-09-23T07:00:53.157Z,10.70
2018-09-23T07:03:57.654Z,10.70
2018-09-23T07:07:01.967Z,10.70
2018-09-23T07:10:06.764Z,10.70
2018-09-23T07:13:11.251Z,10.80
2018-09-23T07:16:15.553Z,10.80
2018-09-23T07:19:19.933Z,10.80
2018-09-23T07:22:24.394Z,10.80
2018-09-23T07:25:28.685Z,10.90
2018-09-23T07:28:33.039Z,11.00
2018-09-23T07:31:37.357Z,11.20
2018-09-23T07:34:41.695Z,11.30
2018-09-23T07:37:46.052Z,11.40
2018-09-23T07:40:50.329Z,11.40
2018-09-23T07:43:54.660Z,11.50
2018-09-23T07:46:58.940Z,11.50
2018-09-23T07:50:03.318Z,11.50
2018-09-23T07:53:07.635Z,11.50
2018-09-23T07:56:11.982Z,11.50
2018-09-23T07:59:16.270Z,11.50
2018-09-23T08:02:20.541Z,11.50
2018-09-23T08:05:24.899Z,11.50
2018-09-23T08:08:29.176Z,11.50
2018-09-23T08:11:33.440Z,11.50
2018-09-23T08:14:38.088Z,11.60
2018-09-23T08:17:42.088Z,11.60
2018-09-23T08:20:46.373Z,11.60
2018-09-23T08:23:50.720Z,11.70
2018-09-23T08:26:55.020Z,11.80
2018-09-23T08:29:59.375Z,11.80
2018-09-23T08:33:03.748Z,11.90
2018-09-23T08:36:08.140Z,12.00
2018-09-23T08:39:12.420Z,12.10
2018-09-23T08:42:16.689Z,12.20
2018-09-23T08:45:20.981Z,12.40
2018-09-23T08:48:25.369Z,12.40
2018-09-23T08:51:29.634Z,12.40
2018-09-23T08:54:33.983Z,12.30
2018-09-23T08:57:38.323Z,12.30
2018-09-23T09:00:42.688Z,12.30
2018-09-23T09:03:47.062Z,12.40
2018-09-23T09:06:51.977Z,12.30
2018-09-23T09:09:56.389Z,12.30
2018-09-23T09:13:00.792Z,12.30
2018-09-23T09:16:05.130Z,12.40
2018-09-23T09:19:09.453Z,12.40
2018-09-23T09:22:13.765Z,12.40
2018-09-23T09:25:18.077Z,12.40
2018-09-23T09:28:22.334Z,12.30
2018-09-23T09:31:26.683Z,12.40
2018-09-23T09:34:30.961Z,12.50
2018-09-23T09:37:35.271Z,12.60
2018-09-23T09:40:39.586Z,12.70
2018-09-23T09:43:43.922Z,12.70
2018-09-23T09:46:48.325Z,12.80
2018-09-23T09:49:52.667Z,12.80
2018-09-23T09:52:56.968Z,12.90
2018-09-23T09:56:01.313Z,13.10
2018-09-23T09:59:05.633Z,13.20
2018-09-23T10:02:09.911Z,13.30
2018-09-23T10:05:14.292Z,13.30
2018-09-23T10:08:18.557Z,13.20
2018-09-23T10:11:22.995Z,13.10
2018-09-23T10:14:27.349Z,13.00
2018-09-23T10:17:31.654Z,13.00
2018-09-23T10:20:36.111Z,13.10
2018-09-23T10:23:40.780Z,13.20
2018-09-23T10:26:44.711Z,13.30
2018-09-23T10:29:49.105Z,13.40
2018-09-23T10:32:54.323Z,13.30
2018-09-23T10:35:58.632Z,13.40
2018-09-23T10:39:02.962Z,13.20
2018-09-23T10:42:07.261Z,13.20
2018-09-23T10:45:11.554Z,13.20
2018-09-23T10:48:15.916Z,13.30
2018-09-23T10:51:21.263Z,13.20
2018-09-23T10:54:25.552Z,13.30
2018-09-23T10:57:29.916Z,13.30
2018-09-23T11:00:34.215Z,13.30
2018-09-23T11:03:38.603Z,13.30
2018-09-23T11:06:42.854Z,13.40
2018-09-23T11:09:47.239Z,13.40
2018-09-23T11:12:51.522Z,13.50
2018-09-23T11:15:55.820Z,13.50
2018-09-23T11:19:00.143Z,13.40
2018-09-23T11:22:04.483Z,13.40
2018-09-23T11:25:08.830Z,13.40
2018-09-23T11:28:13.233Z,13.50
2018-09-23T11:31:17.554Z,13.60
2018-09-23T11:34:21.940Z,13.60
2018-09-23T11:37:26.265Z,13.60
2018-09-23T11:40:30.605Z,13.60
2018-09-23T11:43:34.910Z,13.60
2018-09-23T11:46:39.502Z,13.50
2018-09-23T11:49:43.825Z,13.50
2018-09-23T11:52:48.109Z,13.50
2018-09-23T11:55:52.517Z,13.40
2018-09-23T11:58:56.969Z,13.40
2018-09-23T12:02:03.078Z,13.40
2018-09-23T12:05:07.418Z,13.40
2018-09-23T12:08:11.766Z,13.40
2018-09-23T12:11:16.154Z,13.50
2018-09-23T12:14:21.264Z,13.40
2018-09-23T12:17:25.617Z,13.50
2018-09-23T12:20:29.967Z,13.50
2018-09-23T12:23:34.272Z,13.40
2018-09-23T12:26:38.586Z,13.40
2018-09-23T12:29:43.034Z,13.40
2018-09-23T12:32:47.245Z,13.40
2018-09-23T12:35:51.580Z,13.40
2018-09-23T12:38:55.877Z,13.40
2018-09-23T12:42:01.699Z,13.30
2018-09-23T12:45:06.060Z,13.30
2018-09-23T12:48:10.368Z,13.30
2018-09-23T12:51:14.705Z,13.30
2018-09-23T12:54:19.084Z,13.30
2018-09-23T12:57:23.355Z,13.30
2018-09-23T13:00:27.665Z,13.30
2018-09-23T13:03:32.013Z,13.20
2018-09-23T13:06:36.306Z,13.20
2018-09-23T13:09:40.684Z,13.20
2018-09-23T13:12:45.010Z,13.20
2018-09-23T13:15:49.318Z,13.20
2018-09-23T13:18:53.720Z,13.20
2018-09-23T13:21:58.050Z,13.20
2018-09-23T13:25:02.468Z,13.10
2018-09-23T13:28:07.177Z,13.10
2018-09-23T13:31:11.690Z,13.10
2018-09-23T13:34:16.041Z,13.10
2018-09-23T13:37:20.302Z,13.10
2018-09-23T13:40:24.673Z,13.00
2018-09-23T13:43:28.987Z,13.00
2018-09-23T13:46:33.382Z,13.00
2018-09-23T13:49:37.641Z,12.90
2018-09-23T13:52:41.914Z,13.00
2018-09-23T13:55:46.289Z,13.00
2018-09-23T13:58:50.603Z,13.00
2018-09-23T14:01:54.892Z,13.00
2018-09-23T14:04:59.263Z,12.90
2018-09-23T14:08:03.599Z,13.00
2018-09-23T14:11:08.010Z,13.00
2018-09-23T14:14:12.309Z,13.00
2018-09-23T14:17:16.650Z,13.00
2018-09-23T14:20:20.949Z,13.10
2018-09-23T14:23:25.209Z,13.00
2018-09-23T14:26:29.629Z,12.90
2018-09-23T14:29:34.091Z,12.80
2018-09-23T14:32:38.423Z,12.70
2018-09-23T14:35:42.775Z,12.70
2018-09-23T14:38:47.112Z,12.70
2018-09-23T14:41:51.419Z,12.60
2018-09-23T14:44:55.848Z,12.60
2018-09-23T14:48:00.148Z,12.50
2018-09-23T14:51:04.429Z,12.50
2018-09-23T14:54:08.829Z,12.50
2018-09-23T14:57:13.154Z,12.40
2018-09-23T15:00:17.594Z,12.40
2018-09-23T15:03:21.987Z,12.40
2018-09-23T15:06:26.503Z,12.40
2018-09-23T15:09:30.767Z,12.40
2018-09-23T15:12:35.054Z,12.40
2018-09-23T15:15:39.469Z,12.40
2018-09-23T15:18:43.837Z,12.40
2018-09-23T15:21:48.315Z,12.30
2018-09-23T15:24:52.690Z,12.30
2018-09-23T15:27:57.032Z,12.40
2018-09-23T15:31:01.399Z,12.30
2018-09-23T15:34:05.675Z,12.30
2018-09-23T15:37:10.156Z,12.20
2018-09-23T15:40:14.789Z,12.20
2018-09-23T15:43:19.333Z,12.10
2018-09-23T15:46:23.939Z,12.10
2018-09-23T15:49:28.356Z,12.10
2018-09-23T15:52:32.663Z,12.10
2018-09-23T15:55:37.098Z,12.00
2018-09-23T15:58:41.465Z,12.00
2018-09-23T16:01:45.875Z,11.90
2018-09-23T16:04:51.123Z,11.90
2018-09-23T16:07:55.582Z,11.80
2018-09-23T16:10:59.896Z,11.80
2018-09-23T16:14:04.347Z,11.70
2018-09-23T16:17:08.793Z,11.70
2018-09-23T16:20:13.216Z,11.70
2018-09-23T16:23:17.667Z,11.60
2018-09-23T16:26:22.057Z,11.60
2018-09-23T16:29:26.535Z,11.50
2018-09-23T16:32:30.905Z,11.50
2018-09-23T16:35:35.372Z,11.40
2018-09-23T16:38:39.789Z,11.40
2018-09-23T16:41:44.281Z,11.40
2018-09-23T16:44:48.716Z,11.30
2018-09-23T16:47:53.154Z,11.30
2018-09-23T16:50:57.584Z,11.20
2018-09-23T16:54:02.007Z,11.20
2018-09-23T16:57:06.528Z,11.20
2018-09-23T17:00:11.004Z,11.20
2018-09-23T17:03:15.618Z,11.20
2018-09-23T17:06:20.365Z,11.10
2018-09-23T17:09:24.837Z,11.10
2018-09-23T17:12:30.696Z,11.00
2018-09-23T17:15:35.296Z,11.00
2018-09-23T17:18:39.874Z,10.90
2018-09-23T17:21:44.650Z,10.80
2018-09-23T17:24:49.389Z,10.70
2018-09-23T17:27:55.489Z,10.60
2018-09-23T17:31:00.026Z,10.60
2018-09-23T17:34:04.828Z,10.60
2018-09-23T17:37:09.544Z,10.50
2018-09-23T17:40:14.229Z,10.50
2018-09-23T17:43:19.121Z,10.40
2018-09-23T17:46:23.787Z,10.30
2018-09-23T17:49:28.764Z,10.30
2018-09-23T17:52:33.910Z,10.20
2018-09-23T17:55:39.098Z,10.20
2018-09-23T17:58:44.004Z,10.20
2018-09-23T18:01:49.654Z,10.20
2018-09-23T18:04:54.414Z,10.10
2018-09-23T18:07:59.434Z,10.00
2018-09-23T18:11:04.255Z,10.00
2018-09-23T18:14:09.406Z,10.00
2018-09-23T18:17:14.307Z,9.90
2018-09-23T18:20:19.247Z,9.90
2018-09-23T18:23:24.177Z,9.80
2018-09-23T18:26:29.121Z,9.80
2018-09-23T18:29:34.170Z,9.70
2018-09-23T18:32:39.317Z,9.70
2018-09-23T18:35:44.278Z,9.60
2018-09-23T18:38:49.857Z,9.60
2018-09-23T18:44:26.184Z,9.50
2018-09-23T18:47:32.934Z,9.50
2018-09-23T18:50:37.766Z,9.40
2018-09-23T18:53:46.724Z,9.40
2018-09-23T18:56:51.753Z,9.40
2018-09-23T18:59:56.656Z,9.30
2018-09-23T19:03:01.593Z,9.30
2018-09-23T19:06:06.592Z,9.30
2018-09-23T19:09:11.459Z,9.20
2018-09-23T19:12:16.325Z,9.20
2018-09-23T19:15:22.478Z,9.20
2018-09-23T19:18:28.108Z,9.10
2018-09-23T19:21:33.045Z,9.10
2018-09-23T19:24:37.923Z,9.10
2018-09-23T19:27:42.957Z,9.00
2018-09-23T19:30:47.829Z,9.00
2018-09-23T19:33:53.363Z,8.90
2018-09-23T19:36:58.233Z,9.00
2018-09-23T19:40:03.871Z,8.90
2018-09-23T19:43:10.605Z,8.90
2018-09-23T19:46:15.510Z,8.90
2018-09-23T19:49:20.455Z,8.90
2018-09-23T19:52:25.347Z,8.90
2018-09-23T19:55:30.498Z,8.90
2018-09-23T19:58:35.338Z,8.90
2018-09-23T20:01:40.183Z,8.80
2018-09-23T20:04:45.688Z,8.90
2018-09-23T20:07:50.706Z,8.80
2018-09-23T20:10:56.074Z,8.80
2018-09-23T20:14:00.856Z,8.80
2018-09-23T20:17:05.741Z,8.80
2018-09-23T20:20:10.332Z,8.80
2018-09-23T20:23:14.992Z,8.80
2018-09-23T20:26:19.578Z,8.80
2018-09-23T20:29:24.078Z,8.80
2018-09-23T20:32:28.635Z,8.70
2018-09-23T20:35:33.114Z,8.70
2018-09-23T20:38:37.542Z,8.70
2018-09-23T20:41:41.929Z,8.60
2018-09-23T20:44:46.367Z,8.60
2018-09-23T20:47:50.745Z,8.60
2018-09-23T20:50:55.103Z,8.60
2018-09-23T20:54:00.269Z,8.60
2018-09-23T20:57:04.563Z,8.60
2018-09-23T21:00:09.005Z,8.60
2018-09-23T21:03:13.453Z,8.60
2018-09-23T21:06:17.825Z,8.50
2018-09-23T21:09:22.144Z,8.60
2018-09-23T21:12:26.460Z,8.60
2018-09-23T21:15:30.763Z,8.60
2018-09-23T21:18:35.057Z,8.60
2018-09-23T21:21:39.425Z,8.60
2018-09-23T21:24:43.746Z,8.60
2018-09-23T21:27:48.083Z,8.60
2018-09-23T21:30:52.387Z,6.80
2018-09-23T21:33:56.735Z,8.60
2018-09-23T21:37:01.032Z,8.50
2018-09-23T21:40:05.348Z,8.50
2018-09-23T21:43:10.649Z,8.50
2018-09-23T21:46:15.020Z,8.50
2018-09-23T21:49:19.344Z,8.50
2018-09-23T21:52:23.638Z,8.40
2018-09-23T21:55:27.977Z,8.40
2018-09-23T21:58:32.342Z,8.40
2018-09-23T22:01:36.720Z,8.50
2018-09-23T22:04:41.093Z,8.50
2018-09-23T22:07:45.419Z,8.50
2018-09-23T22:10:49.698Z,8.40
2018-09-23T22:13:53.985Z,8.40
2018-09-23T22:16:58.341Z,8.40
2018-09-23T22:20:02.573Z,8.40
2018-09-23T22:23:06.885Z,8.40
2018-09-23T22:26:11.117Z,8.40
2018-09-23T22:29:15.645Z,8.50
2018-09-23T22:32:19.979Z,8.50
2018-09-23T22:35:24.268Z,8.50
2018-09-23T22:38:28.595Z,8.50
2018-09-23T22:41:32.907Z,8.50
2018-09-23T22:44:37.230Z,8.40
2018-09-23T22:47:41.571Z,8.50
2018-09-23T22:50:45.897Z,8.50
2018-09-23T22:53:50.433Z,8.50
2018-09-23T22:56:54.728Z,8.50
2018-09-23T22:59:59.050Z,8.50
2018-09-23T23:03:03.377Z,8.60
2018-09-23T23:06:07.725Z,8.60
2018-09-23T23:09:12.042Z,8.60
2018-09-23T23:12:16.360Z,8.60
2018-09-23T23:15:20.662Z,8.70
2018-09-23T23:18:25.387Z,8.70
2018-09-23T23:21:29.745Z,8.60
2018-09-23T23:24:34.182Z,8.60
2018-09-23T23:27:38.459Z,8.60
2018-09-23T23:30:42.773Z,8.60
2018-09-23T23:33:47.022Z,8.60
2018-09-23T23:36:51.313Z,8.60
2018-09-23T23:39:55.630Z,8.50
2018-09-23T23:42:59.998Z,8.50
2018-09-23T23:46:09.637Z,8.50
2018-09-23T23:49:13.921Z,8.50
2018-09-23T23:52:20.041Z,8.50
2018-09-23T23:55:24.408Z,8.60
2018-09-23T23:58:34.473Z,8.50
